sensor_id;sensor_type;location;lat;lon;timestamp;temperature;humidity
59556;DHT22;45374;52.746;6.304;2023-02-18T00:01:12;7.90;99.90
59556;DHT22;45374;52.746;6.304;2023-02-18T00:03:38;7.90;99.90
59556;DHT22;45374;52.746;6.304;2023-02-18T00:06:16;8.00;99.90
59556;DHT22;45374;52.746;6.304;2023-02-18T00:08:43;8.00;99.90
59556;DHT22;45374;52.746;6.304;2023-02-18T00:11:09;8.10;99.90
59556;DHT22;45374;52.746;6.304;2023-02-18T00:13:35;8.20;99.90
59556;DHT22;45374;52.746;6.304;2023-02-18T00:16:09;8.30;99.90
59556;DHT22;45374;52.746;6.304;2023-02-18T00:18:35;8.30;99.90
59556;DHT22;45374;52.746;6.304;2023-02-18T00:21:03;8.40;99.90
59556;DHT22;45374;52.746;6.304;2023-02-18T00:23:31;8.40;99.90
59556;DHT22;45374;52.746;6.304;2023-02-18T00:26:23;8.50;99.90
59556;DHT22;45374;52.746;6.304;2023-02-18T00:28:49;8.50;99.90
59556;DHT22;45374;52.746;6.304;2023-02-18T00:31:25;8.60;99.90
59556;DHT22;45374;52.746;6.304;2023-02-18T00:33:51;8.60;99.90
59556;DHT22;45374;52.746;6.304;2023-02-18T00:36:18;8.60;99.90
59556;DHT22;45374;52.746;6.304;2023-02-18T00:38:47;8.60;99.90
59556;DHT22;45374;52.746;6.304;2023-02-18T00:41:13;8.70;99.90
59556;DHT22;45374;52.746;6.304;2023-02-18T00:43:38;8.70;99.90
59556;DHT22;45374;52.746;6.304;2023-02-18T00:46:04;8.70;99.90
59556;DHT22;45374;52.746;6.304;2023-02-18T00:48:31;8.70;99.90
59556;DHT22;45374;52.746;6.304;2023-02-18T00:50:57;8.70;99.90
59556;DHT22;45374;52.746;6.304;2023-02-18T00:53:22;8.70;99.90
59556;DHT22;45374;52.746;6.304;2023-02-18T00:55:49;8.70;99.90
59556;DHT22;45374;52.746;6.304;2023-02-18T00:58:15;8.70;99.90
59556;DHT22;45374;52.746;6.304;2023-02-18T01:00:40;8.70;99.90
59556;DHT22;45374;52.746;6.304;2023-02-18T01:03:06;8.60;99.90
59556;DHT22;45374;52.746;6.304;2023-02-18T01:05:32;8.60;99.90
59556;DHT22;45374;52.746;6.304;2023-02-18T01:07:58;8.60;99.90
59556;DHT22;45374;52.746;6.304;2023-02-18T01:10:23;8.60;99.90
59556;DHT22;45374;52.746;6.304;2023-02-18T01:12:49;8.50;99.90
59556;DHT22;45374;52.746;6.304;2023-02-18T01:15:15;8.50;99.90
59556;DHT22;45374;52.746;6.304;2023-02-18T01:17:41;8.50;99.90
59556;DHT22;45374;52.746;6.304;2023-02-18T01:20:08;8.50;99.90
59556;DHT22;45374;52.746;6.304;2023-02-18T01:22:34;8.50;99.90
59556;DHT22;45374;52.746;6.304;2023-02-18T01:24:59;8.50;99.90
59556;DHT22;45374;52.746;6.304;2023-02-18T01:27:25;8.50;99.90
59556;DHT22;45374;52.746;6.304;2023-02-18T01:29:51;8.40;99.90
59556;DHT22;45374;52.746;6.304;2023-02-18T01:32:17;8.40;99.90
59556;DHT22;45374;52.746;6.304;2023-02-18T01:34:43;8.50;99.90
59556;DHT22;45374;52.746;6.304;2023-02-18T01:37:08;8.50;99.90
59556;DHT22;45374;52.746;6.304;2023-02-18T01:39:34;8.60;99.90
59556;DHT22;45374;52.746;6.304;2023-02-18T01:41:59;8.60;99.90
59556;DHT22;45374;52.746;6.304;2023-02-18T01:44:27;8.60;99.90
59556;DHT22;45374;52.746;6.304;2023-02-18T01:46:54;8.60;99.90
59556;DHT22;45374;52.746;6.304;2023-02-18T01:49:23;8.70;99.90
59556;DHT22;45374;52.746;6.304;2023-02-18T01:51:54;8.70;99.90
59556;DHT22;45374;52.746;6.304;2023-02-18T01:54:28;8.80;99.90
59556;DHT22;45374;52.746;6.304;2023-02-18T01:57:00;8.90;99.90
59556;DHT22;45374;52.746;6.304;2023-02-18T01:59:48;8.90;99.90
59556;DHT22;45374;52.746;6.304;2023-02-18T02:02:18;8.90;99.90
59556;DHT22;45374;52.746;6.304;2023-02-18T02:04:44;8.90;99.90
59556;DHT22;45374;52.746;6.304;2023-02-18T02:07:10;8.90;99.90
59556;DHT22;45374;52.746;6.304;2023-02-18T02:09:39;8.90;99.90
59556;DHT22;45374;52.746;6.304;2023-02-18T02:12:32;8.90;99.90
59556;DHT22;45374;52.746;6.304;2023-02-18T02:36:42;8.70;99.90
59556;DHT22;45374;52.746;6.304;2023-02-18T02:42:14;8.70;99.90
59556;DHT22;45374;52.746;6.304;2023-02-18T02:44:56;8.70;99.90
59556;DHT22;45374;52.746;6.304;2023-02-18T02:50:07;8.70;99.90
59556;DHT22;45374;52.746;6.304;2023-02-18T02:52:43;8.80;99.90
59556;DHT22;45374;52.746;6.304;2023-02-18T02:55:11;8.80;99.90
59556;DHT22;45374;52.746;6.304;2023-02-18T02:57:49;8.80;99.90
59556;DHT22;45374;52.746;6.304;2023-02-18T03:00:18;8.80;99.90
59556;DHT22;45374;52.746;6.304;2023-02-18T03:03:15;8.80;99.90
59556;DHT22;45374;52.746;6.304;2023-02-18T03:11:15;9.00;99.90
59556;DHT22;45374;52.746;6.304;2023-02-18T03:13:52;8.80;99.90
59556;DHT22;45374;52.746;6.304;2023-02-18T03:19:06;9.10;99.90
59556;DHT22;45374;52.746;6.304;2023-02-18T03:21:43;9.00;99.90
59556;DHT22;45374;52.746;6.304;2023-02-18T03:24:16;9.00;99.90
59556;DHT22;45374;52.746;6.304;2023-02-18T03:26:49;9.20;99.90
59556;DHT22;45374;52.746;6.304;2023-02-18T03:29:17;9.10;99.90
59556;DHT22;45374;52.746;6.304;2023-02-18T03:31:46;9.10;99.90
59556;DHT22;45374;52.746;6.304;2023-02-18T03:34:17;9.20;99.90
59556;DHT22;45374;52.746;6.304;2023-02-18T03:36:44;9.10;99.90
59556;DHT22;45374;52.746;6.304;2023-02-18T03:39:14;9.20;99.90
59556;DHT22;45374;52.746;6.304;2023-02-18T03:41:41;9.20;99.90
59556;DHT22;45374;52.746;6.304;2023-02-18T03:44:08;9.10;99.90
59556;DHT22;45374;52.746;6.304;2023-02-18T03:46:35;9.20;99.90
59556;DHT22;45374;52.746;6.304;2023-02-18T03:49:01;9.10;99.90
59556;DHT22;45374;52.746;6.304;2023-02-18T03:51:27;9.20;99.90
59556;DHT22;45374;52.746;6.304;2023-02-18T03:53:53;9.20;99.90
59556;DHT22;45374;52.746;6.304;2023-02-18T03:56:19;9.20;99.90
59556;DHT22;45374;52.746;6.304;2023-02-18T03:58:45;9.10;99.90
59556;DHT22;45374;52.746;6.304;2023-02-18T04:01:11;9.30;99.90
59556;DHT22;45374;52.746;6.304;2023-02-18T04:03:36;9.30;99.90
59556;DHT22;45374;52.746;6.304;2023-02-18T04:06:02;9.20;99.90
59556;DHT22;45374;52.746;6.304;2023-02-18T04:08:28;9.20;99.90
59556;DHT22;45374;52.746;6.304;2023-02-18T04:10:53;9.30;99.90
59556;DHT22;45374;52.746;6.304;2023-02-18T04:13:19;9.20;99.90
59556;DHT22;45374;52.746;6.304;2023-02-18T04:15:45;9.20;99.90
59556;DHT22;45374;52.746;6.304;2023-02-18T04:18:13;9.20;99.90
59556;DHT22;45374;52.746;6.304;2023-02-18T04:20:38;9.20;99.90
59556;DHT22;45374;52.746;6.304;2023-02-18T04:23:04;9.20;99.90
59556;DHT22;45374;52.746;6.304;2023-02-18T04:25:30;9.30;99.90
59556;DHT22;45374;52.746;6.304;2023-02-18T04:27:56;9.20;99.90
59556;DHT22;45374;52.746;6.304;2023-02-18T04:30:22;9.30;99.90
59556;DHT22;45374;52.746;6.304;2023-02-18T04:32:47;9.20;99.90
59556;DHT22;45374;52.746;6.304;2023-02-18T04:35:13;9.20;99.90
59556;DHT22;45374;52.746;6.304;2023-02-18T04:37:39;9.40;99.90
59556;DHT22;45374;52.746;6.304;2023-02-18T04:40:06;9.40;99.90
59556;DHT22;45374;52.746;6.304;2023-02-18T04:42:33;9.30;99.90
59556;DHT22;45374;52.746;6.304;2023-02-18T04:44:59;9.20;99.90
59556;DHT22;45374;52.746;6.304;2023-02-18T04:47:25;9.20;99.90
59556;DHT22;45374;52.746;6.304;2023-02-18T04:49:51;9.30;99.90
59556;DHT22;45374;52.746;6.304;2023-02-18T04:52:17;9.40;99.90
59556;DHT22;45374;52.746;6.304;2023-02-18T04:54:43;9.40;99.90
59556;DHT22;45374;52.746;6.304;2023-02-18T04:57:09;9.20;99.90
59556;DHT22;45374;52.746;6.304;2023-02-18T04:59:35;9.40;99.90
59556;DHT22;45374;52.746;6.304;2023-02-18T05:02:00;9.30;99.90
59556;DHT22;45374;52.746;6.304;2023-02-18T05:04:26;9.30;99.90
59556;DHT22;45374;52.746;6.304;2023-02-18T05:06:52;9.40;99.90
59556;DHT22;45374;52.746;6.304;2023-02-18T05:09:17;9.20;99.90
59556;DHT22;45374;52.746;6.304;2023-02-18T05:11:43;9.10;99.90
59556;DHT22;45374;52.746;6.304;2023-02-18T05:14:09;9.40;99.90
59556;DHT22;45374;52.746;6.304;2023-02-18T05:16:35;9.30;99.90
59556;DHT22;45374;52.746;6.304;2023-02-18T05:19:00;9.30;99.90
59556;DHT22;45374;52.746;6.304;2023-02-18T05:21:26;9.20;99.90
59556;DHT22;45374;52.746;6.304;2023-02-18T05:23:51;9.20;99.90
59556;DHT22;45374;52.746;6.304;2023-02-18T05:26:17;9.20;99.90
59556;DHT22;45374;52.746;6.304;2023-02-18T05:28:43;9.20;99.90
59556;DHT22;45374;52.746;6.304;2023-02-18T05:31:08;9.20;99.90
59556;DHT22;45374;52.746;6.304;2023-02-18T05:33:34;9.40;99.90
59556;DHT22;45374;52.746;6.304;2023-02-18T05:35:59;9.30;99.90
59556;DHT22;45374;52.746;6.304;2023-02-18T05:38:25;9.40;99.90
59556;DHT22;45374;52.746;6.304;2023-02-18T05:40:50;9.30;99.90
59556;DHT22;45374;52.746;6.304;2023-02-18T05:43:16;9.30;99.90
59556;DHT22;45374;52.746;6.304;2023-02-18T05:45:42;9.30;99.90
59556;DHT22;45374;52.746;6.304;2023-02-18T05:48:07;9.50;99.90
59556;DHT22;45374;52.746;6.304;2023-02-18T05:50:34;9.40;99.90
59556;DHT22;45374;52.746;6.304;2023-02-18T05:52:59;9.40;99.90
59556;DHT22;45374;52.746;6.304;2023-02-18T05:55:25;9.40;99.90
59556;DHT22;45374;52.746;6.304;2023-02-18T05:57:50;9.50;99.90
59556;DHT22;45374;52.746;6.304;2023-02-18T06:00:17;9.50;99.90
59556;DHT22;45374;52.746;6.304;2023-02-18T06:02:42;9.50;99.90
59556;DHT22;45374;52.746;6.304;2023-02-18T06:05:08;9.40;99.90
59556;DHT22;45374;52.746;6.304;2023-02-18T06:07:34;9.60;99.90
59556;DHT22;45374;52.746;6.304;2023-02-18T06:10:00;9.60;99.90
59556;DHT22;45374;52.746;6.304;2023-02-18T06:12:25;9.60;99.90
59556;DHT22;45374;52.746;6.304;2023-02-18T06:14:51;9.40;99.90
59556;DHT22;45374;52.746;6.304;2023-02-18T06:17:17;9.60;99.90
59556;DHT22;45374;52.746;6.304;2023-02-18T06:19:44;9.60;99.90
59556;DHT22;45374;52.746;6.304;2023-02-18T06:22:10;9.60;99.90
59556;DHT22;45374;52.746;6.304;2023-02-18T06:24:36;9.70;99.90
59556;DHT22;45374;52.746;6.304;2023-02-18T06:27:02;9.70;99.90
59556;DHT22;45374;52.746;6.304;2023-02-18T06:29:28;9.70;99.90
59556;DHT22;45374;52.746;6.304;2023-02-18T06:31:56;9.70;99.90
59556;DHT22;45374;52.746;6.304;2023-02-18T06:34:21;9.60;99.90
59556;DHT22;45374;52.746;6.304;2023-02-18T06:36:47;9.70;99.90
59556;DHT22;45374;52.746;6.304;2023-02-18T06:39:13;9.70;99.90
59556;DHT22;45374;52.746;6.304;2023-02-18T06:41:38;9.90;99.90
59556;DHT22;45374;52.746;6.304;2023-02-18T06:44:05;9.70;99.90
59556;DHT22;45374;52.746;6.304;2023-02-18T06:46:30;10.00;99.90
59556;DHT22;45374;52.746;6.304;2023-02-18T06:48:56;9.80;99.90
59556;DHT22;45374;52.746;6.304;2023-02-18T06:51:21;9.90;99.90
59556;DHT22;45374;52.746;6.304;2023-02-18T06:53:47;9.80;99.90
59556;DHT22;45374;52.746;6.304;2023-02-18T06:56:13;10.00;99.90
59556;DHT22;45374;52.746;6.304;2023-02-18T06:58:38;9.80;99.90
59556;DHT22;45374;52.746;6.304;2023-02-18T07:01:04;9.80;99.90
59556;DHT22;45374;52.746;6.304;2023-02-18T07:03:30;10.00;99.90
59556;DHT22;45374;52.746;6.304;2023-02-18T07:05:55;9.80;99.90
59556;DHT22;45374;52.746;6.304;2023-02-18T07:08:21;10.00;99.90
59556;DHT22;45374;52.746;6.304;2023-02-18T07:10:47;10.00;99.90
59556;DHT22;45374;52.746;6.304;2023-02-18T07:13:12;9.90;99.90
59556;DHT22;45374;52.746;6.304;2023-02-18T07:15:38;10.00;99.90
59556;DHT22;45374;52.746;6.304;2023-02-18T07:18:04;10.00;99.90
59556;DHT22;45374;52.746;6.304;2023-02-18T07:20:30;9.80;99.90
59556;DHT22;45374;52.746;6.304;2023-02-18T07:22:56;9.90;99.90
59556;DHT22;45374;52.746;6.304;2023-02-18T07:25:23;9.80;99.90
59556;DHT22;45374;52.746;6.304;2023-02-18T07:27:49;9.80;99.90
59556;DHT22;45374;52.746;6.304;2023-02-18T07:30:15;10.00;99.90
59556;DHT22;45374;52.746;6.304;2023-02-18T07:32:41;10.00;99.90
59556;DHT22;45374;52.746;6.304;2023-02-18T07:35:07;10.00;99.90
59556;DHT22;45374;52.746;6.304;2023-02-18T07:37:33;9.90;99.90
59556;DHT22;45374;52.746;6.304;2023-02-18T07:39:58;10.00;99.90
59556;DHT22;45374;52.746;6.304;2023-02-18T07:42:24;10.20;99.90
59556;DHT22;45374;52.746;6.304;2023-02-18T07:44:50;10.10;99.90
59556;DHT22;45374;52.746;6.304;2023-02-18T07:47:16;10.10;99.90
59556;DHT22;45374;52.746;6.304;2023-02-18T07:49:44;10.20;99.90
59556;DHT22;45374;52.746;6.304;2023-02-18T07:52:11;10.20;99.90
59556;DHT22;45374;52.746;6.304;2023-02-18T07:54:37;10.10;99.90
59556;DHT22;45374;52.746;6.304;2023-02-18T07:57:02;10.10;99.90
59556;DHT22;45374;52.746;6.304;2023-02-18T07:59:28;10.20;99.90
59556;DHT22;45374;52.746;6.304;2023-02-18T08:01:53;10.10;99.90
59556;DHT22;45374;52.746;6.304;2023-02-18T08:04:19;10.20;99.90
59556;DHT22;45374;52.746;6.304;2023-02-18T08:06:46;10.20;99.90
59556;DHT22;45374;52.746;6.304;2023-02-18T08:09:13;10.20;99.90
59556;DHT22;45374;52.746;6.304;2023-02-18T08:11:39;10.20;99.90
59556;DHT22;45374;52.746;6.304;2023-02-18T08:14:05;10.20;99.90
59556;DHT22;45374;52.746;6.304;2023-02-18T08:16:31;10.30;99.90
59556;DHT22;45374;52.746;6.304;2023-02-18T08:18:57;10.30;99.90
59556;DHT22;45374;52.746;6.304;2023-02-18T08:21:24;10.20;99.90
59556;DHT22;45374;52.746;6.304;2023-02-18T08:23:50;10.30;99.90
59556;DHT22;45374;52.746;6.304;2023-02-18T08:26:16;10.30;99.90
59556;DHT22;45374;52.746;6.304;2023-02-18T08:28:43;10.20;99.90
59556;DHT22;45374;52.746;6.304;2023-02-18T08:31:18;10.20;99.90
59556;DHT22;45374;52.746;6.304;2023-02-18T08:33:44;10.30;99.90
59556;DHT22;45374;52.746;6.304;2023-02-18T08:36:10;10.20;99.90
59556;DHT22;45374;52.746;6.304;2023-02-18T08:38:35;10.30;99.90
59556;DHT22;45374;52.746;6.304;2023-02-18T08:41:06;10.20;99.90
59556;DHT22;45374;52.746;6.304;2023-02-18T08:43:32;10.20;99.90
59556;DHT22;45374;52.746;6.304;2023-02-18T08:45:58;10.10;99.90
59556;DHT22;45374;52.746;6.304;2023-02-18T08:48:24;10.10;99.90
59556;DHT22;45374;52.746;6.304;2023-02-18T08:50:50;10.10;99.90
59556;DHT22;45374;52.746;6.304;2023-02-18T08:53:16;10.20;99.90
59556;DHT22;45374;52.746;6.304;2023-02-18T08:55:42;10.10;99.90
59556;DHT22;45374;52.746;6.304;2023-02-18T08:58:08;10.10;99.90
59556;DHT22;45374;52.746;6.304;2023-02-18T09:00:34;10.00;99.90
59556;DHT22;45374;52.746;6.304;2023-02-18T09:03:00;9.90;99.90
59556;DHT22;45374;52.746;6.304;2023-02-18T09:05:26;9.80;99.90
59556;DHT22;45374;52.746;6.304;2023-02-18T09:07:52;9.70;99.90
59556;DHT22;45374;52.746;6.304;2023-02-18T09:10:17;9.80;99.90
59556;DHT22;45374;52.746;6.304;2023-02-18T09:12:43;9.70;99.90
59556;DHT22;45374;52.746;6.304;2023-02-18T09:15:08;9.80;99.90
59556;DHT22;45374;52.746;6.304;2023-02-18T09:17:34;9.70;99.90
59556;DHT22;45374;52.746;6.304;2023-02-18T09:20:00;9.60;99.90
59556;DHT22;45374;52.746;6.304;2023-02-18T09:22:26;9.60;99.90
59556;DHT22;45374;52.746;6.304;2023-02-18T09:24:51;9.60;99.90
59556;DHT22;45374;52.746;6.304;2023-02-18T09:27:17;9.60;99.90
59556;DHT22;45374;52.746;6.304;2023-02-18T09:29:42;9.60;99.90
59556;DHT22;45374;52.746;6.304;2023-02-18T09:32:08;9.50;99.90
59556;DHT22;45374;52.746;6.304;2023-02-18T09:34:35;9.60;99.90
59556;DHT22;45374;52.746;6.304;2023-02-18T09:37:01;9.60;99.90
59556;DHT22;45374;52.746;6.304;2023-02-18T09:39:27;9.50;99.90
59556;DHT22;45374;52.746;6.304;2023-02-18T09:42:02;9.60;99.90
59556;DHT22;45374;52.746;6.304;2023-02-18T09:44:38;9.40;99.90
59556;DHT22;45374;52.746;6.304;2023-02-18T09:49:43;9.40;99.90
59556;DHT22;45374;52.746;6.304;2023-02-18T09:52:20;9.40;99.90
59556;DHT22;45374;52.746;6.304;2023-02-18T09:54:51;9.40;99.90
59556;DHT22;45374;52.746;6.304;2023-02-18T09:57:38;9.50;99.90
59556;DHT22;45374;52.746;6.304;2023-02-18T10:00:14;9.40;99.90
59556;DHT22;45374;52.746;6.304;2023-02-18T10:02:53;9.50;99.90
59556;DHT22;45374;52.746;6.304;2023-02-18T10:05:20;9.50;99.90
59556;DHT22;45374;52.746;6.304;2023-02-18T10:07:47;9.70;99.90
59556;DHT22;45374;52.746;6.304;2023-02-18T10:10:41;9.70;99.90
59556;DHT22;45374;52.746;6.304;2023-02-18T10:13:10;9.80;99.90
59556;DHT22;45374;52.746;6.304;2023-02-18T10:15:37;9.90;99.90
59556;DHT22;45374;52.746;6.304;2023-02-18T10:18:05;10.00;99.90
59556;DHT22;45374;52.746;6.304;2023-02-18T10:20:35;10.00;99.90
59556;DHT22;45374;52.746;6.304;2023-02-18T10:23:02;10.00;99.90
59556;DHT22;45374;52.746;6.304;2023-02-18T10:25:31;10.20;99.90
59556;DHT22;45374;52.746;6.304;2023-02-18T10:27:59;10.10;99.90
59556;DHT22;45374;52.746;6.304;2023-02-18T10:30:39;10.20;99.90
59556;DHT22;45374;52.746;6.304;2023-02-18T10:33:31;10.20;99.90
59556;DHT22;45374;52.746;6.304;2023-02-18T10:44:36;10.30;99.90
59556;DHT22;45374;52.746;6.304;2023-02-18T10:49:56;10.30;99.90
59556;DHT22;45374;52.746;6.304;2023-02-18T10:52:22;10.30;99.90
59556;DHT22;45374;52.746;6.304;2023-02-18T10:54:56;10.20;99.90
59556;DHT22;45374;52.746;6.304;2023-02-18T10:57:23;10.30;99.90
59556;DHT22;45374;52.746;6.304;2023-02-18T10:59:59;10.30;99.90
59556;DHT22;45374;52.746;6.304;2023-02-18T11:02:30;10.40;99.90
59556;DHT22;45374;52.746;6.304;2023-02-18T11:04:58;10.40;99.90
59556;DHT22;45374;52.746;6.304;2023-02-18T11:07:29;10.40;99.90
59556;DHT22;45374;52.746;6.304;2023-02-18T11:10:01;10.50;99.90
59556;DHT22;45374;52.746;6.304;2023-02-18T11:12:43;10.50;99.90
59556;DHT22;45374;52.746;6.304;2023-02-18T11:17:43;10.60;99.90
59556;DHT22;45374;52.746;6.304;2023-02-18T11:22:50;10.80;99.90
59556;DHT22;45374;52.746;6.304;2023-02-18T11:25:27;10.80;99.90
59556;DHT22;45374;52.746;6.304;2023-02-18T11:30:42;10.70;99.90
59556;DHT22;45374;52.746;6.304;2023-02-18T11:33:09;10.60;99.90
59556;DHT22;45374;52.746;6.304;2023-02-18T11:35:51;10.60;99.90
59556;DHT22;45374;52.746;6.304;2023-02-18T11:38:27;10.60;99.90
59556;DHT22;45374;52.746;6.304;2023-02-18T11:41:01;10.60;99.90
59556;DHT22;45374;52.746;6.304;2023-02-18T11:43:29;10.60;99.90
59556;DHT22;45374;52.746;6.304;2023-02-18T11:46:28;10.60;99.90
59556;DHT22;45374;52.746;6.304;2023-02-18T11:48:54;10.60;99.90
59556;DHT22;45374;52.746;6.304;2023-02-18T11:51:31;10.70;99.90
59556;DHT22;45374;52.746;6.304;2023-02-18T11:56:55;11.00;99.90
59556;DHT22;45374;52.746;6.304;2023-02-18T11:59:22;11.10;99.90
59556;DHT22;45374;52.746;6.304;2023-02-18T12:04:45;11.20;99.90
59556;DHT22;45374;52.746;6.304;2023-02-18T12:09:59;11.40;99.90
59556;DHT22;45374;52.746;6.304;2023-02-18T12:12:47;11.60;99.90
59556;DHT22;45374;52.746;6.304;2023-02-18T12:15:18;11.70;99.90
59556;DHT22;45374;52.746;6.304;2023-02-18T12:25:46;11.70;99.90
59556;DHT22;45374;52.746;6.304;2023-02-18T12:40:06;11.80;99.90
59556;DHT22;45374;52.746;6.304;2023-02-18T12:42:46;11.80;99.90
59556;DHT22;45374;52.746;6.304;2023-02-18T12:45:28;11.90;99.90
59556;DHT22;45374;52.746;6.304;2023-02-18T13:05:12;11.80;99.90
59556;DHT22;45374;52.746;6.304;2023-02-18T13:13:28;11.80;99.90
59556;DHT22;45374;52.746;6.304;2023-02-18T13:16:02;11.70;99.90
59556;DHT22;45374;52.746;6.304;2023-02-18T13:18:45;11.70;99.90
59556;DHT22;45374;52.746;6.304;2023-02-18T13:21:13;11.80;99.90
59556;DHT22;45374;52.746;6.304;2023-02-18T13:23:49;11.70;99.90
59556;DHT22;45374;52.746;6.304;2023-02-18T13:26:17;11.80;99.90
59556;DHT22;45374;52.746;6.304;2023-02-18T13:31:46;11.70;99.90
59556;DHT22;45374;52.746;6.304;2023-02-18T13:34:30;11.60;99.90
59556;DHT22;45374;52.746;6.304;2023-02-18T13:39:58;11.60;99.90
59556;DHT22;45374;52.746;6.304;2023-02-18T13:47:44;11.50;99.90
59556;DHT22;45374;52.746;6.304;2023-02-18T13:50:31;11.50;99.90
59556;DHT22;45374;52.746;6.304;2023-02-18T13:55:48;11.40;99.90
59556;DHT22;45374;52.746;6.304;2023-02-18T13:58:31;11.40;99.90
59556;DHT22;45374;52.746;6.304;2023-02-18T14:01:16;11.40;99.90
59556;DHT22;45374;52.746;6.304;2023-02-18T14:09:01;11.50;99.90
59556;DHT22;45374;52.746;6.304;2023-02-18T14:11:39;11.40;99.90
59556;DHT22;45374;52.746;6.304;2023-02-18T14:17:11;11.40;99.90
59556;DHT22;45374;52.746;6.304;2023-02-18T14:19:38;11.30;99.90
59556;DHT22;45374;52.746;6.304;2023-02-18T14:25:01;11.30;99.90
59556;DHT22;45374;52.746;6.304;2023-02-18T14:27:26;11.30;99.90
59556;DHT22;45374;52.746;6.304;2023-02-18T14:29:53;11.30;99.90
59556;DHT22;45374;52.746;6.304;2023-02-18T14:32:19;11.30;99.90
59556;DHT22;45374;52.746;6.304;2023-02-18T14:35:07;11.30;99.90
59556;DHT22;45374;52.746;6.304;2023-02-18T14:48:52;11.30;99.90
59556;DHT22;45374;52.746;6.304;2023-02-18T14:51:24;11.20;99.90
59556;DHT22;45374;52.746;6.304;2023-02-18T14:53:50;11.30;99.90
59556;DHT22;45374;52.746;6.304;2023-02-18T14:56:19;11.30;99.90
59556;DHT22;45374;52.746;6.304;2023-02-18T14:58:59;11.30;99.90
59556;DHT22;45374;52.746;6.304;2023-02-18T15:01:31;11.20;99.90
59556;DHT22;45374;52.746;6.304;2023-02-18T15:03:57;11.20;99.90
59556;DHT22;45374;52.746;6.304;2023-02-18T15:08:55;11.20;99.90
59556;DHT22;45374;52.746;6.304;2023-02-18T15:11:24;11.20;99.90
59556;DHT22;45374;52.746;6.304;2023-02-18T15:13:53;11.20;99.90
59556;DHT22;45374;52.746;6.304;2023-02-18T15:16:26;11.10;99.90
59556;DHT22;45374;52.746;6.304;2023-02-18T15:19:12;11.10;99.90
59556;DHT22;45374;52.746;6.304;2023-02-18T15:21:42;11.10;99.90
59556;DHT22;45374;52.746;6.304;2023-02-18T15:26:51;11.00;99.90
59556;DHT22;45374;52.746;6.304;2023-02-18T15:29:25;11.00;99.90
59556;DHT22;45374;52.746;6.304;2023-02-18T15:31:53;11.00;99.90
59556;DHT22;45374;52.746;6.304;2023-02-18T15:36:55;11.00;99.90
59556;DHT22;45374;52.746;6.304;2023-02-18T15:39:22;10.90;99.90
59556;DHT22;45374;52.746;6.304;2023-02-18T15:41:53;10.90;99.90
59556;DHT22;45374;52.746;6.304;2023-02-18T15:44:25;10.90;99.90
59556;DHT22;45374;52.746;6.304;2023-02-18T15:46:52;10.90;99.90
59556;DHT22;45374;52.746;6.304;2023-02-18T15:49:22;10.90;99.90
59556;DHT22;45374;52.746;6.304;2023-02-18T15:51:49;10.80;99.90
59556;DHT22;45374;52.746;6.304;2023-02-18T15:54:21;10.80;99.90
59556;DHT22;45374;52.746;6.304;2023-02-18T15:56:52;10.80;99.90
59556;DHT22;45374;52.746;6.304;2023-02-18T15:59:33;10.80;99.90
59556;DHT22;45374;52.746;6.304;2023-02-18T16:02:13;10.80;99.90
59556;DHT22;45374;52.746;6.304;2023-02-18T16:04:44;10.80;99.90
59556;DHT22;45374;52.746;6.304;2023-02-18T16:07:27;10.80;99.90
59556;DHT22;45374;52.746;6.304;2023-02-18T16:10:08;10.70;99.90
59556;DHT22;45374;52.746;6.304;2023-02-18T16:12:36;10.70;99.90
59556;DHT22;45374;52.746;6.304;2023-02-18T16:15:03;10.70;99.90
59556;DHT22;45374;52.746;6.304;2023-02-18T16:17:29;10.70;99.90
59556;DHT22;45374;52.746;6.304;2023-02-18T16:19:56;10.70;99.90
59556;DHT22;45374;52.746;6.304;2023-02-18T16:27:31;10.60;99.90
59556;DHT22;45374;52.746;6.304;2023-02-18T16:30:00;10.50;99.90
59556;DHT22;45374;52.746;6.304;2023-02-18T16:32:27;10.50;99.90
59556;DHT22;45374;52.746;6.304;2023-02-18T16:34:52;10.50;99.90
59556;DHT22;45374;52.746;6.304;2023-02-18T16:37:18;10.50;99.90
59556;DHT22;45374;52.746;6.304;2023-02-18T16:40:02;10.50;99.90
59556;DHT22;45374;52.746;6.304;2023-02-18T16:42:28;10.40;99.90
59556;DHT22;45374;52.746;6.304;2023-02-18T16:44:54;10.30;99.90
59556;DHT22;45374;52.746;6.304;2023-02-18T16:47:19;10.30;99.90
59556;DHT22;45374;52.746;6.304;2023-02-18T16:49:48;10.30;99.90
59556;DHT22;45374;52.746;6.304;2023-02-18T16:52:17;10.30;99.90
59556;DHT22;45374;52.746;6.304;2023-02-18T16:54:43;10.30;99.90
59556;DHT22;45374;52.746;6.304;2023-02-18T16:57:12;10.30;99.90
59556;DHT22;45374;52.746;6.304;2023-02-18T16:59:37;10.30;99.90
59556;DHT22;45374;52.746;6.304;2023-02-18T17:02:03;10.20;99.90
59556;DHT22;45374;52.746;6.304;2023-02-18T17:04:28;10.20;99.90
59556;DHT22;45374;52.746;6.304;2023-02-18T17:06:54;10.20;99.90
59556;DHT22;45374;52.746;6.304;2023-02-18T17:09:22;10.20;99.90
59556;DHT22;45374;52.746;6.304;2023-02-18T17:11:53;10.20;99.90
59556;DHT22;45374;52.746;6.304;2023-02-18T17:14:20;10.20;99.90
59556;DHT22;45374;52.746;6.304;2023-02-18T17:16:47;10.20;99.90
59556;DHT22;45374;52.746;6.304;2023-02-18T17:19:14;10.20;99.90
59556;DHT22;45374;52.746;6.304;2023-02-18T17:21:40;10.10;99.90
59556;DHT22;45374;52.746;6.304;2023-02-18T17:24:08;10.10;99.90
59556;DHT22;45374;52.746;6.304;2023-02-18T17:26:35;10.10;99.90
59556;DHT22;45374;52.746;6.304;2023-02-18T17:29:01;10.10;99.90
59556;DHT22;45374;52.746;6.304;2023-02-18T17:31:33;10.10;99.90
59556;DHT22;45374;52.746;6.304;2023-02-18T17:34:03;10.00;99.90
59556;DHT22;45374;52.746;6.304;2023-02-18T17:36:29;10.00;99.90
59556;DHT22;45374;52.746;6.304;2023-02-18T17:38:55;10.10;99.90
59556;DHT22;45374;52.746;6.304;2023-02-18T17:41:20;10.00;99.90
59556;DHT22;45374;52.746;6.304;2023-02-18T17:43:46;10.00;99.90
59556;DHT22;45374;52.746;6.304;2023-02-18T17:46:14;9.90;99.90
59556;DHT22;45374;52.746;6.304;2023-02-18T17:48:41;9.90;99.90
59556;DHT22;45374;52.746;6.304;2023-02-18T17:51:11;9.80;99.90
59556;DHT22;45374;52.746;6.304;2023-02-18T17:53:38;9.80;99.90
59556;DHT22;45374;52.746;6.304;2023-02-18T17:56:03;9.70;99.90
59556;DHT22;45374;52.746;6.304;2023-02-18T17:58:29;9.70;99.90
59556;DHT22;45374;52.746;6.304;2023-02-18T18:00:56;9.70;99.90
59556;DHT22;45374;52.746;6.304;2023-02-18T18:03:22;9.70;99.90
59556;DHT22;45374;52.746;6.304;2023-02-18T18:05:50;9.60;99.90
59556;DHT22;45374;52.746;6.304;2023-02-18T18:08:20;9.60;99.90
59556;DHT22;45374;52.746;6.304;2023-02-18T18:10:53;9.50;99.90
59556;DHT22;45374;52.746;6.304;2023-02-18T18:13:21;9.50;99.90
59556;DHT22;45374;52.746;6.304;2023-02-18T18:15:48;9.50;99.90
59556;DHT22;45374;52.746;6.304;2023-02-18T18:18:14;9.40;99.90
59556;DHT22;45374;52.746;6.304;2023-02-18T18:20:42;9.50;99.90
59556;DHT22;45374;52.746;6.304;2023-02-18T18:23:11;9.50;99.90
59556;DHT22;45374;52.746;6.304;2023-02-18T18:25:43;9.50;99.90
59556;DHT22;45374;52.746;6.304;2023-02-18T18:28:09;9.60;99.90